Time;durP1;ratioP1;P1;durP2;ratioP2;P2;SDS_P1;SDS_P2;PMS_P1;PMS_P2;Temp;Humidity;BMP_temperature;BMP_pressure;BME280_temperature;BME280_humidity;BME280_pressure;Samples;Min_cycle;Max_cycle;Signal;HPM_P1;HPM_P2
2022/01/27 00:00:43;;;;;;;14.20;7.90;;;;;;;0.56;85.91;99372.10;219622;1275;22554;-71
2022/01/27 00:06:03;;;;;;;14.70;6.70;;;;;;;0.52;85.91;99352.94;219920;1274;23294;-71
2022/01/27 00:11:13;;;;;;;10.90;6.70;;;;;;;0.49;85.91;99342.61;219879;1274;25466;-70
2022/01/27 00:16:31;;;;;;;12.60;6.50;;;;;;;0.46;85.70;99347.23;218682;1274;25261;-70
2022/01/27 00:21:37;;;;;;;11.00;6.90;;;;;;;0.42;85.61;99350.90;219184;1274;22584;-71
2022/01/27 00:26:40;;;;;;;14.30;7.10;;;;;;;0.40;85.46;99340.69;219920;1274;25977;-70
2022/01/27 00:31:46;;;;;;;14.10;7.60;;;;;;;0.40;85.70;99340.81;219732;1274;24802;-71
2022/01/27 00:36:51;;;;;;;11.90;7.60;;;;;;;0.40;85.61;99348.96;219732;1274;22539;-71
2022/01/27 00:41:59;;;;;;;12.70;7.00;;;;;;;0.40;85.39;99338.77;219466;1277;22550;-70
2022/01/27 00:47:22;;;;;;;14.00;7.30;;;;;;;0.39;85.30;99318.46;218769;1274;25269;-70
2022/01/27 00:52:47;;;;;;;12.10;7.10;;;;;;;0.40;85.26;99321.88;219419;1276;22559;-71
2022/01/27 01:04:11;;;;;;;14.50;7.50;;;;;;;0.41;84.98;99298.44;219637;1274;22655;-71
2022/01/27 01:10:03;;;;;;;14.40;8.20;;;;;;;0.42;84.79;99298.75;219821;1274;24400;-71
2022/01/27 01:15:21;;;;;;;17.00;8.10;;;;;;;0.37;84.31;99307.54;218972;1274;22678;-70
2022/01/27 01:33:55;;;;;;;;;;;;;;;;;;;;;
2022/01/27 01:39:22;;;;;;;13.30;8.70;;;;;;;0.44;84.77;99291.08;219536;1275;23434;-72
2022/01/27 01:44:48;;;;;;;14.90;8.90;;;;;;;0.47;84.58;99283.80;218665;1274;25393;-70
2022/01/27 01:49:59;;;;;;;15.60;9.20;;;;;;;0.45;84.29;99286.05;218654;1274;24515;-71
2022/01/27 01:55:10;;;;;;;15.50;9.10;;;;;;;0.43;84.25;99283.38;219854;1274;26824;-70
2022/01/27 02:00:21;;;;;;;14.90;9.70;;;;;;;0.42;84.51;99274.83;219554;1277;26385;-71
2022/01/27 02:05:34;;;;;;;13.90;8.30;;;;;;;0.41;84.41;99273.04;219636;1274;25276;-71
2022/01/27 02:21:53;;;;;;;16.90;9.70;;;;;;;0.23;84.46;99256.13;219495;1277;22753;-71
2022/01/27 02:26:58;;;;;;;14.90;9.10;;;;;;;0.21;84.57;99250.50;219608;1275;22560;-70
2022/01/27 02:32:01;;;;;;;12.60;8.20;;;;;;;0.20;84.79;99257.84;219762;1274;22575;-71
2022/01/27 02:37:06;;;;;;;16.40;9.40;;;;;;;0.18;84.68;99254.60;219642;1275;22566;-72
2022/01/27 02:42:34;;;;;;;16.60;9.00;;;;;;;0.16;84.88;99248.71;219358;1275;22730;-71
2022/01/27 02:47:59;;;;;;;15.90;9.60;;;;;;;0.15;84.99;99250.52;219464;1276;24328;-70
2022/01/27 02:53:19;;;;;;;18.40;10.30;;;;;;;0.15;85.07;99247.16;219664;1275;22595;-70
2022/01/27 02:58:21;;;;;;;18.20;10.10;;;;;;;0.15;85.13;99248.46;218690;1274;22568;-69
2022/01/27 03:03:42;;;;;;;18.90;10.80;;;;;;;0.14;85.23;99248.50;218652;1275;22601;-72
2022/01/27 03:09:32;;;;;;;21.00;11.20;;;;;;;0.14;85.46;99250.45;218766;1275;22692;-71
2022/01/27 03:15:50;;;;;;;20.90;11.50;;;;;;;0.13;85.47;99240.48;219517;1277;22670;-70
2022/01/27 03:22:03;;;;;;;20.80;11.70;;;;;;;0.10;85.88;99229.30;218891;1274;24377;-70
2022/01/27 03:27:32;;;;;;;21.10;11.50;;;;;;;0.07;85.94;99222.30;219780;1274;24251;-70
2022/01/27 03:33:12;;;;;;;22.30;12.30;;;;;;;0.04;85.93;99223.61;218608;1275;22545;-71
2022/01/27 03:39:14;;;;;;;;;;;;;;;;;;;;;
2022/01/27 03:45:02;;;;;;;21.30;12.70;;;;;;;-0.02;86.28;99226.98;219620;1277;25399;-70
2022/01/27 03:50:56;;;;;;;26.00;13.10;;;;;;;-0.02;86.39;99223.70;218601;1277;25417;-71
2022/01/27 03:56:23;;;;;;;26.80;15.50;;;;;;;-0.02;86.49;99217.71;219806;1274;24392;-72
2022/01/27 04:01:48;;;;;;;24.20;14.70;;;;;;;-0.03;86.52;99206.94;218839;1275;22958;-71
2022/01/27 04:06:53;;;;;;;24.70;13.80;;;;;;;-0.03;86.44;99214.39;218731;1274;22565;-71
2022/01/27 04:12:13;;;;;;;28.20;15.10;;;;;;;-0.05;86.88;99201.77;218692;1275;22603;-70
2022/01/27 04:17:27;;;;;;;26.70;15.40;;;;;;;-0.07;86.92;99191.60;218401;1277;22550;-71
2022/01/27 04:22:40;;;;;;;25.90;14.60;;;;;;;-0.10;87.02;99182.85;218854;1274;22877;-70
2022/01/27 04:28:01;;;;;;;;;;;;;;;;;;;;;
2022/01/27 04:33:17;;;;;;;26.60;13.50;;;;;;;-0.13;87.04;99175.08;219613;1277;25327;-71
2022/01/27 04:44:52;;;;;;;24.20;14.10;;;;;;;-0.08;87.05;99186.45;219316;1276;22550;-71
2022/01/27 04:49:23;;;;;;;25.70;13.00;;;;;;;-0.05;86.78;99183.52;219266;1276;22661;-71
2022/01/27 04:54:39;;;;;;;24.20;12.50;;;;;;;-0.01;86.97;99181.23;219768;1274;24121;-71
2022/01/27 04:59:47;;;;;;;22.90;12.00;;;;;;;0.04;86.49;99168.48;219764;1274;25491;-70
2022/01/27 05:04:51;;;;;;;22.20;12.70;;;;;;;0.04;86.14;99156.73;218966;1274;24021;-71
2022/01/27 05:10:22;;;;;;;22.30;12.20;;;;;;;0.05;86.52;99152.80;218575;1277;22548;-70
2022/01/27 05:15:31;;;;;;;18.40;11.00;;;;;;;0.08;86.25;99141.23;219470;1276;22555;-72
2022/01/27 05:20:34;;;;;;;21.70;12.30;;;;;;;0.07;86.16;99132.33;218535;1277;25264;-70
2022/01/27 05:25:39;;;;;;;23.00;12.50;;;;;;;0.08;86.28;99132.12;219509;1276;25544;-70
2022/01/27 05:30:49;;;;;;;23.20;11.30;;;;;;;0.10;86.01;99121.20;219540;1277;22670;-71
2022/01/27 05:36:08;;;;;;;22.10;11.30;;;;;;;0.13;86.22;99117.98;219723;1274;22653;-70
2022/01/27 05:41:42;;;;;;;20.50;11.50;;;;;;;0.16;85.80;99116.75;218817;1274;22572;-70
2022/01/27 05:47:20;;;;;;;21.10;11.30;;;;;;;0.14;85.68;99106.23;218692;1277;22574;-70
2022/01/27 05:52:45;;;;;;;22.30;10.70;;;;;;;0.12;85.63;99093.23;218623;1274;24297;-70
2022/01/27 05:58:30;;;;;;;21.90;11.00;;;;;;;0.09;85.63;99085.34;218571;1277;22569;-71
2022/01/27 06:04:14;;;;;;;;;;;;;;;;;;;;;
2022/01/27 06:10:05;;;;;;;20.10;11.10;;;;;;;0.11;85.51;99075.98;219738;1274;22610;-70
2022/01/27 06:21:25;;;;;;;21.80;11.50;;;;;;;0.12;85.44;99075.63;219774;1274;24459;-70
2022/01/27 06:27:06;;;;;;;19.60;10.70;;;;;;;0.12;85.31;99064.13;219547;1277;22563;-70
2022/01/27 06:33:07;;;;;;;18.80;10.30;;;;;;;0.13;85.24;99072.14;218656;1277;26252;-71
2022/01/27 06:39:18;;;;;;;21.10;9.70;;;;;;;0.15;85.13;99081.21;219644;1274;25519;-70
2022/01/27 06:44:58;;;;;;;;;;;;;;;;;;;;;
2022/01/27 06:50:55;;;;;;;;;;;;;;;;;;;;;
2022/01/27 06:56:44;;;;;;;18.90;10.90;;;;;;;0.14;84.79;99063.59;218285;1274;24502;-71
2022/01/27 07:02:05;;;;;;;;;;;;;;;;;;;;;
2022/01/27 07:08:01;;;;;;;22.10;11.70;;;;;;;0.30;85.08;99050.06;218055;1274;22566;-70
2022/01/27 07:13:05;;;;;;;19.10;10.50;;;;;;;0.39;84.52;99055.95;218509;1274;22780;-70
2022/01/27 07:18:32;;;;;;;;;;;;;;;;;;;;;
2022/01/27 07:24:08;;;;;;;19.00;10.10;;;;;;;0.46;84.29;99057.27;218493;1274;24824;-70
2022/01/27 07:29:34;;;;;;;20.90;10.90;;;;;;;0.51;84.29;99047.83;218226;1274;22544;-70
2022/01/27 07:34:51;;;;;;;23.80;12.50;;;;;;;0.58;84.25;99036.70;218377;1274;23950;-70
2022/01/27 07:40:15;;;;;;;23.40;11.80;;;;;;;0.69;83.97;99031.60;217963;1275;25718;-70
2022/01/27 07:45:50;;;;;;;22.60;11.80;;;;;;;0.83;83.99;99023.80;218458;1274;23854;-71
2022/01/27 07:51:25;;;;;;;;;;;;;;;;;;;;;
2022/01/27 07:57:50;;;;;;;22.30;11.60;;;;;;;1.03;83.50;99007.77;218198;1274;24241;-70
2022/01/27 08:04:11;;;;;;;;;;;;;;;;;;;;;
2022/01/27 08:10:36;;;;;;;25.90;10.90;;;;;;;1.08;82.23;98995.30;218512;1274;23126;-70
2022/01/27 08:15:56;;;;;;;20.20;9.70;;;;;;;1.00;81.97;99007.95;220114;1275;22499;-71
2022/01/27 08:21:33;;;;;;;18.60;9.80;;;;;;;0.95;82.05;98999.91;220172;1274;229468;-70
2022/01/27 08:26:42;;;;;;;21.80;10.90;;;;;;;0.94;82.04;98999.08;220265;1274;23982;-70
2022/01/27 08:32:02;;;;;;;17.80;10.10;;;;;;;0.94;81.77;99000.29;220001;1275;25801;-69
2022/01/27 08:37:25;;;;;;;20.00;10.20;;;;;;;0.96;81.73;98980.21;218199;1274;22569;-69
2022/01/27 08:42:43;;;;;;;17.40;10.20;;;;;;;1.16;81.90;98973.61;218138;1277;22635;-69
2022/01/27 08:48:17;;;;;;;;;;;;;;;;;;;;;
2022/01/27 08:53:25;;;;;;;19.70;9.50;;;;;;;1.45;80.79;98982.75;218549;1274;22595;-70
2022/01/27 08:59:22;;;;;;;17.80;10.10;;;;;;;1.50;80.79;98987.10;218099;1274;22732;-71
2022/01/27 09:04:55;;;;;;;22.50;10.60;;;;;;;1.66;79.82;98976.73;219922;1274;22547;-70
2022/01/27 09:10:19;;;;;;;;;;;;;;;;;;;;;
2022/01/27 09:16:06;;;;;;;20.10;10.90;;;;;;;1.64;78.67;98956.29;219922;1274;24378;-71
2022/01/27 09:21:32;;;;;;;18.70;10.70;;;;;;;1.59;79.28;98942.55;218830;1274;25269;-70
2022/01/27 09:32:27;;;;;;;;;;;;;;;;;;;;;
2022/01/27 09:37:29;;;;;;;14.40;8.20;;;;;;;1.57;79.23;98904.26;218395;1277;22600;-68
2022/01/27 09:42:38;;;;;;;18.00;9.10;;;;;;;1.53;78.45;98892.45;217991;1277;22569;-69
2022/01/27 09:47:54;;;;;;;16.20;8.40;;;;;;;1.58;79.00;98861.98;218734;1274;22776;-68
2022/01/27 09:53:14;;;;;;;;;;;;;;;;;;;;;
2022/01/27 09:58:27;;;;;;;15.20;8.00;;;;;;;1.66;78.56;98863.14;218014;1274;22574;-68
2022/01/27 10:03:31;;;;;;;16.40;9.10;;;;;;;1.70;77.93;98852.17;218564;1274;22588;-69
2022/01/27 10:09:05;;;;;;;17.00;8.90;;;;;;;1.70;77.93;98837.18;218187;1274;22583;-69
2022/01/27 10:14:39;;;;;;;15.10;8.60;;;;;;;1.77;78.40;98841.42;218076;1277;24264;-69
2022/01/27 10:19:48;;;;;;;17.40;9.30;;;;;;;1.83;77.87;98845.25;218435;1274;25408;-68
2022/01/27 10:25:03;;;;;;;15.40;8.60;;;;;;;1.91;77.93;98850.34;218202;1274;22729;-68
2022/01/27 10:35:52;;;;;;;15.20;7.60;;;;;;;2.09;76.86;98833.23;218108;1274;25416;-69
2022/01/27 10:41:08;;;;;;;14.00;7.60;;;;;;;2.10;76.39;98817.61;218469;1276;25281;-68
2022/01/27 10:51:49;;;;;;;14.60;8.20;;;;;;;2.12;75.65;98805.93;218104;1277;22662;-68
2022/01/27 10:57:06;;;;;;;14.10;7.70;;;;;;;2.16;75.83;98783.70;218643;1274;25305;-68
2022/01/27 11:02:24;;;;;;;13.10;7.50;;;;;;;2.21;75.39;98773.23;218243;1274;26113;-68
2022/01/27 11:07:33;;;;;;;13.00;6.80;;;;;;;2.20;74.88;98768.89;218876;1274;25268;-68
2022/01/27 11:12:38;;;;;;;13.80;7.50;;;;;;;2.23;75.21;98770.11;218643;1274;25391;-67
2022/01/27 11:17:59;;;;;;;13.40;7.40;;;;;;;2.26;74.99;98760.90;218488;1274;25395;-68
2022/01/27 11:24:03;;;;;;;12.90;7.80;;;;;;;2.18;74.20;98753.05;219872;1274;22667;-68
2022/01/27 11:29:08;;;;;;;12.50;6.80;;;;;;;2.09;74.87;98743.98;218331;1276;22806;-67
2022/01/27 11:34:11;;;;;;;11.90;6.50;;;;;;;2.05;74.68;98739.34;219035;1274;22571;-69
2022/01/27 11:39:17;;;;;;;13.30;7.30;;;;;;;2.03;75.02;98741.21;218153;1274;22563;-68
2022/01/27 11:44:20;;;;;;;11.70;6.90;;;;;;;2.05;75.22;98747.92;218174;1275;22685;-68
2022/01/27 11:49:46;;;;;;;11.10;7.10;;;;;;;2.01;75.07;98742.92;216281;1274;24235;-68
2022/01/27 11:54:49;;;;;;;11.10;6.60;;;;;;;2.04;75.88;98742.49;225123;1274;24445;-68
2022/01/27 12:00:12;;;;;;;10.40;6.10;;;;;;;2.07;74.91;98726.18;225311;1274;24502;-68
2022/01/27 12:05:16;;;;;;;10.80;6.30;;;;;;;2.10;74.50;98702.50;225385;1274;22445;-67
2022/01/27 12:10:56;;;;;;;9.70;6.30;;;;;;;2.08;74.80;98668.27;225232;1274;24459;-67
2022/01/27 12:21:37;;;;;;;14.10;8.00;;;;;;;2.03;75.12;98651.27;225263;1274;22245;-67
2022/01/27 12:27:00;;;;;;;13.40;8.10;;;;;;;2.01;75.41;98648.81;225387;1274;24422;-67
2022/01/27 12:32:06;;;;;;;12.80;6.20;;;;;;;2.00;75.61;98634.04;225136;1276;24486;-68
2022/01/27 12:37:11;;;;;;;11.50;7.20;;;;;;;1.99;75.34;98630.16;225322;1274;24544;-68
2022/01/27 12:42:15;;;;;;;12.10;5.70;;;;;;;1.99;75.69;98628.11;225153;1274;24214;-68
2022/01/27 12:47:24;;;;;;;14.70;8.50;;;;;;;2.01;75.12;98620.68;225456;1274;22392;-68
2022/01/27 12:52:33;;;;;;;13.90;7.70;;;;;;;1.97;75.53;98612.06;225219;1274;24631;-67
2022/01/27 12:57:37;;;;;;;16.70;8.50;;;;;;;1.97;75.64;98607.69;225260;1274;24527;-72
2022/01/27 13:02:40;;;;;;;13.50;7.70;;;;;;;2.02;75.97;98599.04;224975;1275;22472;-68
2022/01/27 13:07:49;;;;;;;11.80;6.40;;;;;;;2.08;75.39;98584.66;225337;1274;22463;-68
2022/01/27 13:12:57;;;;;;;15.60;8.20;;;;;;;2.01;75.90;98569.70;225434;1274;24392;-68
2022/01/27 13:18:12;;;;;;;16.00;9.00;;;;;;;2.01;76.03;98585.96;224949;1275;24222;-69
2022/01/27 13:28:32;;;;;;;12.10;7.30;;;;;;;1.90;77.38;98568.86;225380;1274;22507;-68
2022/01/27 13:34:01;;;;;;;12.70;7.80;;;;;;;1.87;78.83;98562.73;225174;1274;24492;-67
2022/01/27 13:44:17;;;;;;;15.40;8.60;;;;;;;1.70;78.23;98567.33;225313;1272;22479;-69
2022/01/27 13:49:32;;;;;;;14.20;8.10;;;;;;;1.57;78.46;98568.89;225024;1274;24469;-69
2022/01/27 13:54:46;;;;;;;16.40;8.20;;;;;;;1.45;78.98;98558.94;225389;1274;24526;-68
2022/01/27 14:00:02;;;;;;;16.70;9.80;;;;;;;1.32;79.57;98555.04;225227;1274;24307;-70
2022/01/27 14:05:20;;;;;;;18.40;9.20;;;;;;;1.22;79.57;98554.67;225161;1277;24515;-70
2022/01/27 14:10:29;;;;;;;;;;;;;;;1.09;80.04;98551.29;224909;1276;24506;-69
2022/01/27 14:15:40;;;;;;;24.20;12.40;;;;;;;0.98;80.57;98544.84;225075;1276;24495;-68
2022/01/27 14:20:55;;;;;;;21.00;11.50;;;;;;;0.88;81.03;98538.29;225184;1274;24409;-69
2022/01/27 14:32:57;;;;;;;21.80;11.70;;;;;;;0.74;81.66;98539.02;225002;1274;22532;-69
2022/01/27 14:38:26;;;;;;;26.60;12.30;;;;;;;0.66;81.83;98540.70;225102;1274;22523;-69
2022/01/27 14:43:41;;;;;;;24.90;12.60;;;;;;;0.61;82.36;98536.35;225310;1274;24509;-69
2022/01/27 14:48:52;;;;;;;28.20;13.30;;;;;;;0.57;82.67;98531.48;225299;1274;24344;-69
2022/01/27 14:53:55;;;;;;;23.90;13.00;;;;;;;0.51;83.16;98534.71;224756;1273;22587;-69
2022/01/27 14:58:57;;;;;;;27.70;14.20;;;;;;;0.45;83.28;98531.64;218640;1274;22728;-69
2022/01/27 15:04:03;;;;;;;26.50;13.20;;;;;;;0.37;84.17;98534.13;219163;1274;24492;-68
2022/01/27 15:09:11;;;;;;;28.50;14.90;;;;;;;0.22;85.34;98533.29;218725;1274;25470;-69
2022/01/27 15:19:37;;;;;;;26.70;14.10;;;;;;;-0.01;86.89;98537.53;218672;1277;22577;-69
2022/01/27 15:24:48;;;;;;;33.70;16.10;;;;;;;-0.05;87.61;98537.79;219042;1274;23220;-69
2022/01/27 15:29:53;;;;;;;32.70;15.50;;;;;;;-0.10;87.75;98530.36;218860;1274;22604;-69
2022/01/27 15:34:58;;;;;;;28.80;14.10;;;;;;;-0.12;88.07;98530.65;218871;1274;22752;-69
2022/01/27 15:40:03;;;;;;;26.20;14.80;;;;;;;-0.15;88.83;98536.27;218867;1274;22703;-70
2022/01/27 15:45:09;;;;;;;24.40;13.60;;;;;;;-0.18;89.82;98528.41;219045;1275;25227;-69
2022/01/27 15:50:31;;;;;;;28.00;13.40;;;;;;;-0.22;91.72;98530.41;218703;1274;25501;-70
2022/01/27 15:55:34;;;;;;;28.60;14.50;;;;;;;-0.25;91.31;98535.35;218650;1274;24220;-69
2022/01/27 16:00:42;;;;;;;27.60;14.60;;;;;;;-0.27;92.39;98536.86;218434;1276;22572;-69
2022/01/27 16:05:47;;;;;;;27.20;13.80;;;;;;;-0.28;91.92;98533.74;218992;1274;22544;-69
2022/01/27 16:10:50;;;;;;;26.40;14.90;;;;;;;-0.28;92.48;98538.89;218782;1274;24486;-69
2022/01/27 16:15:55;;;;;;;27.80;13.90;;;;;;;-0.29;93.49;98537.52;218937;1274;22568;-68
2022/01/27 16:20:58;;;;;;;29.30;15.40;;;;;;;-0.29;93.65;98536.39;218877;1274;23203;-69
2022/01/27 16:26:03;;;;;;;23.30;13.00;;;;;;;-0.28;92.70;98535.10;218620;1277;25559;-69
2022/01/27 16:31:09;;;;;;;25.30;13.10;;;;;;;-0.28;93.40;98532.31;218770;1276;22583;-69
2022/01/27 16:36:13;;;;;;;26.70;13.20;;;;;;;-0.28;92.99;98528.88;218964;1276;22588;-68
2022/01/27 16:41:19;;;;;;;23.80;13.20;;;;;;;-0.28;93.06;98518.26;218937;1277;22595;-68
2022/01/27 16:46:21;;;;;;;23.50;14.10;;;;;;;-0.27;93.15;98514.85;218627;1277;22537;-69
2022/01/27 16:51:36;;;;;;;25.00;14.00;;;;;;;-0.25;93.33;98514.90;218525;1277;22709;-69
2022/01/27 16:56:38;;;;;;;24.30;13.20;;;;;;;-0.23;93.58;98507.17;218502;1276;24522;-69
2022/01/27 17:01:41;;;;;;;22.70;13.10;;;;;;;-0.21;93.33;98502.21;218486;1276;22924;-67
2022/01/27 17:06:44;;;;;;;25.30;14.00;;;;;;;-0.16;93.52;98498.13;218632;1276;24242;-67
2022/01/27 17:11:49;;;;;;;30.20;14.90;;;;;;;-0.12;93.08;98488.85;218509;1276;22590;-68
2022/01/27 17:16:55;;;;;;;26.30;13.20;;;;;;;-0.09;93.20;98491.86;218667;1277;25390;-68
2022/01/27 17:22:02;;;;;;;25.60;14.00;;;;;;;-0.06;92.79;98501.54;218473;1276;22793;-68
2022/01/27 17:27:05;;;;;;;26.30;13.30;;;;;;;-0.01;92.45;98500.19;218726;1277;22686;-68
2022/01/27 17:32:08;;;;;;;24.20;13.30;;;;;;;0.03;92.69;98499.80;218709;1277;22620;-69
2022/01/27 17:37:10;;;;;;;23.60;13.10;;;;;;;0.05;92.02;98495.59;219048;1275;22704;-69
2022/01/27 17:42:13;;;;;;;28.50;15.00;;;;;;;0.07;92.15;98486.79;219077;1274;22575;-69
2022/01/27 17:47:18;;;;;;;28.80;14.90;;;;;;;0.10;91.97;98482.01;218901;1274;22559;-69
2022/01/27 17:52:20;;;;;;;32.20;16.50;;;;;;;0.12;91.75;98475.16;218697;1274;25616;-68
2022/01/27 17:57:25;;;;;;;32.70;16.50;;;;;;;0.15;91.72;98469.70;219021;1274;25663;-68
2022/01/27 18:02:27;;;;;;;33.80;17.60;;;;;;;0.15;91.52;98472.02;218821;1274;22566;-68
2022/01/27 18:07:43;;;;;;;32.70;15.90;;;;;;;0.15;91.89;98472.20;218719;1277;25265;-68
2022/01/27 18:12:46;;;;;;;30.10;15.90;;;;;;;0.13;91.77;98467.22;218834;1274;25367;-68
2022/01/27 18:17:49;;;;;;;29.00;15.80;;;;;;;0.12;91.85;98464.46;219090;1274;26426;-69
2022/01/27 18:23:01;;;;;;;29.50;14.90;;;;;;;0.12;91.84;98456.89;218981;1274;25274;-69
2022/01/27 18:28:22;;;;;;;26.80;14.50;;;;;;;0.12;91.75;98460.17;218976;1274;26377;-69
2022/01/27 18:33:24;;;;;;;27.90;14.50;;;;;;;0.10;91.81;98453.08;218808;1274;25652;-69
2022/01/27 18:38:26;;;;;;;25.10;13.70;;;;;;;0.09;91.81;98445.48;218800;1274;25652;-69
2022/01/27 18:43:29;;;;;;;26.90;15.30;;;;;;;0.10;92.28;98442.50;218637;1274;23072;-68
2022/01/27 18:48:34;;;;;;;29.20;15.20;;;;;;;0.13;91.87;98434.10;218812;1277;22682;-69
2022/01/27 18:53:37;;;;;;;26.70;13.60;;;;;;;0.19;92.02;98436.96;219049;1274;22547;-68
2022/01/27 18:58:40;;;;;;;23.10;12.80;;;;;;;0.24;91.88;98435.02;218834;1275;22540;-69
2022/01/27 19:03:43;;;;;;;25.90;13.80;;;;;;;0.29;91.68;98439.44;218791;1274;22565;-68
2022/01/27 19:08:46;;;;;;;28.50;15.10;;;;;;;0.33;91.35;98442.45;218682;1276;24395;-68
2022/01/27 19:13:51;;;;;;;25.10;14.20;;;;;;;0.37;91.22;98448.37;218597;1276;23039;-69
2022/01/27 19:18:53;;;;;;;29.00;13.50;;;;;;;0.40;90.95;98443.49;218770;1274;24450;-68
2022/01/27 19:24:03;;;;;;;26.90;14.00;;;;;;;0.42;90.95;98442.70;218809;1277;22572;-69
2022/01/27 19:29:29;;;;;;;28.80;16.20;;;;;;;0.42;90.79;98434.20;218845;1274;24314;-68
2022/01/27 19:34:34;;;;;;;29.10;14.40;;;;;;;0.43;90.78;98429.74;218737;1277;24302;-70
2022/01/27 19:39:36;;;;;;;27.40;14.10;;;;;;;0.44;90.61;98430.35;218964;1275;25428;-68
2022/01/27 19:44:42;;;;;;;29.20;14.60;;;;;;;0.46;90.44;98419.91;218898;1277;22544;-69
2022/01/27 19:50:02;;;;;;;30.60;15.90;;;;;;;0.48;90.28;98428.91;219117;1274;24264;-69
2022/01/27 19:55:05;;;;;;;29.20;14.70;;;;;;;0.52;90.16;98418.87;219022;1274;25474;-69
2022/01/27 20:00:10;;;;;;;28.90;14.50;;;;;;;0.55;90.13;98410.55;218829;1277;22570;-69
2022/01/27 20:05:19;;;;;;;27.70;14.20;;;;;;;0.56;89.93;98413.69;218915;1274;25083;-69
2022/01/27 20:10:27;;;;;;;26.90;14.30;;;;;;;0.58;90.13;98416.77;218942;1275;25410;-70
2022/01/27 20:15:36;;;;;;;25.10;13.90;;;;;;;0.59;89.82;98405.91;218640;1277;25059;-68
2022/01/27 20:20:39;;;;;;;25.30;13.10;;;;;;;0.60;89.55;98398.32;211316;1277;10387543;-69
2022/01/27 20:25:41;;;;;;;25.40;12.40;;;;;;;0.64;89.61;98390.59;219172;1274;22596;-67
2022/01/27 20:30:44;;;;;;;25.00;13.50;;;;;;;0.69;89.69;98385.05;218891;1277;22642;-69
2022/01/27 20:35:48;;;;;;;30.20;13.60;;;;;;;0.75;89.34;98388.63;218857;1274;22577;-69
2022/01/27 20:40:51;;;;;;;24.40;12.20;;;;;;;0.78;89.06;98390.98;218680;1274;24853;-69
2022/01/27 20:46:01;;;;;;;28.30;12.60;;;;;;;0.81;88.77;98378.52;218757;1277;25468;-69
2022/01/27 20:51:04;;;;;;;25.00;13.20;;;;;;;0.82;88.61;98380.23;218902;1274;25579;-70
2022/01/27 20:56:06;;;;;;;22.00;10.40;;;;;;;0.84;88.37;98369.73;218805;1274;23864;-68
2022/01/27 21:01:09;;;;;;;20.40;10.50;;;;;;;0.85;88.35;98370.81;218479;1276;25447;-67
2022/01/27 21:06:16;;;;;;;23.10;10.30;;;;;;;0.90;88.08;98370.84;218718;1274;25267;-69
2022/01/27 21:11:24;;;;;;;22.70;11.60;;;;;;;0.93;87.94;98369.69;218505;1277;22585;-70
2022/01/27 21:16:31;;;;;;;22.10;10.70;;;;;;;0.95;88.02;98362.55;218942;1274;22664;-69
2022/01/27 21:21:34;;;;;;;20.20;10.80;;;;;;;0.96;88.03;98360.24;218637;1274;22555;-69
2022/01/27 21:26:46;;;;;;;22.00;11.30;;;;;;;0.98;87.81;98359.33;218704;1275;22576;-69
2022/01/27 21:31:57;;;;;;;;;;;;;;;1.00;87.32;98350.98;218703;1275;22528;-69
2022/01/27 21:37:09;;;;;;;18.80;8.80;;;;;;;1.01;87.25;98350.59;218837;1275;22616;-69
2022/01/27 21:42:12;;;;;;;17.20;8.40;;;;;;;1.04;87.11;98350.95;218860;1275;22550;-69
2022/01/27 21:47:16;;;;;;;15.90;7.90;;;;;;;1.06;86.91;98352.00;218872;1275;22624;-69
2022/01/27 21:52:19;;;;;;;12.50;7.00;;;;;;;1.09;86.90;98345.60;218572;1277;22566;-68
2022/01/27 21:57:21;;;;;;;11.00;5.70;;;;;;;1.10;86.37;98341.41;218476;1276;22964;-69
2022/01/27 22:02:44;;;;;;;8.80;5.40;;;;;;;1.11;86.22;98338.48;218573;1277;22546;-70
2022/01/27 22:07:53;;;;;;;9.20;4.70;;;;;;;1.12;86.15;98340.02;218601;1277;22687;-68
2022/01/27 22:12:58;;;;;;;7.40;4.40;;;;;;;1.12;85.72;98342.98;218613;1277;22718;-68
2022/01/27 22:18:06;;;;;;;6.60;3.90;;;;;;;1.13;85.55;98338.44;219088;1275;24253;-68
2022/01/27 22:23:11;;;;;;;6.60;4.30;;;;;;;1.14;85.51;98328.12;218948;1274;25435;-67
2022/01/27 22:28:13;;;;;;;7.70;3.80;;;;;;;1.16;85.54;98328.84;218536;1276;24320;-68
2022/01/27 22:33:20;;;;;;;6.50;3.90;;;;;;;1.17;85.57;98333.30;218308;1276;22618;-68
2022/01/27 22:38:33;;;;;;;7.00;4.20;;;;;;;1.19;85.11;98318.66;218530;1277;24250;-68
2022/01/27 22:43:58;;;;;;;7.30;4.60;;;;;;;1.20;85.30;98317.77;218466;1277;24285;-69
2022/01/27 22:49:01;;;;;;;5.90;3.80;;;;;;;1.19;85.35;98313.91;218603;1277;22558;-69
2022/01/27 22:54:03;;;;;;;5.90;3.50;;;;;;;1.20;85.51;98311.45;218793;1277;24829;-69
2022/01/27 22:59:08;;;;;;;6.90;4.10;;;;;;;1.24;85.33;98315.77;218565;1277;23450;-68
2022/01/27 23:04:11;;;;;;;6.30;4.20;;;;;;;1.26;85.67;98318.14;218443;1277;22637;-70
2022/01/27 23:09:21;;;;;;;6.10;3.90;;;;;;;1.30;85.62;98320.85;218558;1277;22566;-70
2022/01/27 23:14:36;;;;;;;5.70;3.70;;;;;;;1.32;85.46;98317.34;218559;1277;24470;-69
2022/01/27 23:19:51;;;;;;;6.00;4.50;;;;;;;1.32;85.74;98305.37;218393;1276;22706;-69
2022/01/27 23:24:56;;;;;;;6.00;4.00;;;;;;;1.29;85.61;98294.81;218744;1277;23829;-68
2022/01/27 23:30:09;;;;;;;7.10;4.30;;;;;;;1.28;85.93;98309.04;218660;1277;22681;-69
2022/01/27 23:35:11;;;;;;;9.20;5.00;;;;;;;1.33;86.04;98299.67;218820;1274;24251;-68
2022/01/27 23:50:49;;;;;;;7.80;4.60;;;;;;;1.27;86.34;98268.01;218847;1274;22658;-69
2022/01/27 23:55:59;;;;;;;;;;;;;;;1.25;86.14;98263.02;218548;1277;22538;-69
